Time;durP1;ratioP1;P1;durP2;ratioP2;P2;SDS_P1;SDS_P2;PMS_P1;PMS_P2;Temp;Humidity;BMP_temperature;BMP_pressure;BME280_temperature;BME280_humidity;BME280_pressure;Samples;Min_cycle;Max_cycle;Signal;HPM_P1;HPM_P2
2022/12/16 00:14:55;;;;;;;42.40;14.43;;;;;;;-0.99;69.61;99320.81;773953;23;21645;-92
2022/12/16 00:17:40;;;;;;;30.80;13.57;;;;;;;-0.86;69.03;99330.44;4876549;29;20072;-93
2022/12/16 00:21:07;;;;;;;30.35;12.73;;;;;;;-1.16;68.33;99253.66;4872387;29;20053;-94
2022/12/16 00:23:40;;;;;;;34.85;12.13;;;;;;;-1.32;67.80;99220.38;4849198;29;20063;-93
2022/12/16 00:26:11;;;;;;;33.67;13.50;;;;;;;-1.49;68.55;99203.38;4862296;29;20042;-92
2022/12/16 00:29:16;;;;;;;33.22;13.40;;;;;;;-1.12;68.59;99254.84;4822990;29;20038;-91
2022/12/16 00:31:58;;;;;;;28.70;12.82;;;;;;;-1.39;68.93;99206.31;4797260;29;20045;-91
2022/12/16 00:34:29;;;;;;;29.25;12.15;;;;;;;-1.72;68.87;99166.75;4798309;29;20153;-92
2022/12/16 00:36:57;;;;;;;24.67;12.23;;;;;;;-1.74;69.30;99175.03;4784392;29;20046;-91
2022/12/16 00:39:23;;;;;;;21.42;9.85;;;;;;;-1.72;70.03;99193.56;4789013;29;20050;-90
2022/12/16 00:41:52;;;;;;;28.23;12.30;;;;;;;-1.34;70.08;99240.44;4804980;29;20035;-91
2022/12/16 00:44:26;;;;;;;22.73;11.18;;;;;;;-1.71;69.96;99195.97;4785929;29;20046;-92
2022/12/16 00:46:57;;;;;;;28.37;12.60;;;;;;;-1.64;70.35;99195.84;4797637;29;20171;-94
2022/12/16 00:49:23;;;;;;;26.15;12.25;;;;;;;-1.68;69.87;99182.13;4783930;29;20054;-94
2022/12/16 00:52:16;;;;;;;25.67;12.05;;;;;;;-0.72;69.88;99296.94;4827246;29;20026;-93
2022/12/16 00:54:45;;;;;;;28.20;11.55;;;;;;;-1.14;69.28;99226.63;4826994;29;20034;-94
2022/12/16 00:57:23;;;;;;;27.08;13.13;;;;;;;-0.84;69.69;99288.91;4811825;29;20058;-94
2022/12/16 01:00:29;;;;;;;20.80;8.43;;;;;;;-1.45;70.32;99220.66;4811423;29;20037;-94
2022/12/16 01:03:29;;;;;;;28.65;12.32;;;;;;;-0.98;70.56;99299.09;4770423;30;20055;-91
2022/12/16 01:06:33;;;;;;;26.60;11.77;;;;;;;-1.39;70.80;99226.91;4775611;30;20047;-91
2022/12/16 01:09:04;;;;;;;;;;;;;;;-0.84;70.28;99288.09;4796135;29;20027;-93
2022/12/16 01:12:25;;;;;;;23.17;8.73;;;;;;;-1.20;71.05;99255.19;4801291;29;19944;-92
2022/12/16 01:15:03;;;;;;;23.17;10.77;;;;;;;-1.16;71.47;99266.25;4830343;29;20042;-93
2022/12/16 01:18:09;;;;;;;25.95;11.90;;;;;;;-1.35;71.38;99236.94;4825633;29;20050;-93
2022/12/16 01:20:39;;;;;;;;;;;;;;;-0.85;71.23;99303.38;4815674;29;20042;-93
2022/12/16 01:23:09;;;;;;;17.85;8.82;;;;;;;-0.94;71.04;99299.44;4805548;29;19929;-93
2022/12/16 01:25:48;;;;;;;24.70;11.98;;;;;;;-0.92;71.55;99304.59;4804009;29;20080;-91
2022/12/16 01:28:16;;;;;;;27.58;11.10;;;;;;;-1.03;71.08;99263.31;4800917;29;20054;-91
2022/12/16 01:30:45;;;;;;;25.25;11.93;;;;;;;-1.38;70.97;99207.91;4793880;29;20050;-90
2022/12/16 01:33:13;;;;;;;24.55;10.95;;;;;;;-1.39;71.10;99208.97;4822818;29;20055;-93
2022/12/16 01:36:05;;;;;;;24.60;11.48;;;;;;;-0.97;71.00;99254.31;4825167;29;20141;-91
2022/12/16 01:38:45;;;;;;;23.20;11.70;;;;;;;-0.72;70.92;99315.72;4836897;29;20083;-93
2022/12/16 01:41:25;;;;;;;23.23;10.90;;;;;;;-1.31;70.77;99218.50;4855378;29;20053;-92
2022/12/16 01:44:27;;;;;;;22.00;9.63;;;;;;;-1.21;71.23;99232.13;4803725;29;20046;-93
2022/12/16 01:47:03;;;;;;;25.20;9.55;;;;;;;-1.46;71.05;99205.59;4793427;29;20054;-94
2022/12/16 01:49:54;;;;;;;25.95;11.10;;;;;;;-1.36;70.96;99180.84;4804680;29;20050;-93
2022/12/16 01:52:50;;;;;;;22.58;9.45;;;;;;;-1.40;71.09;99187.75;4801494;29;20043;-93
2022/12/16 01:55:47;;;;;;;23.63;11.38;;;;;;;-0.56;71.36;99298.03;4787629;30;20050;-94
2022/12/16 01:58:38;;;;;;;22.75;10.77;;;;;;;-1.23;70.85;99208.22;4802403;29;20039;-94
2022/12/16 02:01:37;;;;;;;23.52;10.02;;;;;;;-0.80;71.21;99286.56;4833608;29;20038;-93
2022/12/16 02:04:13;;;;;;;22.92;9.15;;;;;;;-1.07;71.21;99235.34;4825019;29;20118;-93
2022/12/16 02:06:44;;;;;;;23.05;9.98;;;;;;;-1.02;71.33;99246.19;4810276;29;20030;-93
2022/12/16 02:09:16;;;;;;;17.63;8.88;;;;;;;-1.28;71.21;99208.13;4793772;29;20102;-94
2022/12/16 02:12:04;;;;;;;23.95;10.30;;;;;;;-0.66;71.27;99309.41;4789710;29;20026;-93
2022/12/16 02:16:10;;;;;;;20.20;9.98;;;;;;;-1.00;71.39;99260.97;4823064;29;20130;-94
2022/12/16 02:19:19;;;;;;;20.48;9.85;;;;;;;-0.66;71.96;99320.13;4755851;30;20040;-93
2022/12/16 02:22:50;;;;;;;24.27;10.57;;;;;;;-0.60;71.65;99302.22;4767387;30;20052;-93
2022/12/16 02:25:47;;;;;;;;;;;;;;;;;;;;;
2022/12/16 02:28:57;;;;;;;20.05;8.77;;;;;;;-1.27;72.06;99203.56;4729673;30;19930;-92
2022/12/16 02:32:10;;;;;;;17.92;8.43;;;;;;;-0.75;72.22;99308.13;4784450;30;20064;-93
2022/12/16 02:35:10;;;;;;;19.30;9.50;;;;;;;-0.73;72.35;99306.84;4773927;30;20079;-93
2022/12/16 02:38:08;;;;;;;21.95;10.05;;;;;;;-0.75;72.58;99305.47;4719410;30;20036;-93
2022/12/16 02:41:29;;;;;;;16.48;7.40;;;;;;;-1.48;72.58;99199.69;4707094;30;20044;-93
2022/12/16 02:44:55;;;;;;;25.25;11.02;;;;;;;-0.79;72.37;99288.22;4703995;30;20085;-90
2022/12/16 02:47:24;;;;;;;23.05;10.63;;;;;;;-1.29;72.52;99211.03;4669149;30;20037;-93
2022/12/16 02:49:55;;;;;;;19.50;9.85;;;;;;;-1.22;72.29;99196.44;4667698;30;20034;-93
2022/12/16 02:52:33;;;;;;;14.38;6.70;;;;;;;-0.98;71.91;99234.72;4668871;30;20045;-91
2022/12/16 02:55:12;;;;;;;20.25;9.93;;;;;;;-0.99;72.17;99243.84;4673396;30;20046;-93
2022/12/16 02:58:21;;;;;;;16.35;8.02;;;;;;;-0.55;72.14;99308.53;4664829;30;20039;-93
2022/12/16 03:01:07;;;;;;;17.35;8.80;;;;;;;-1.10;72.15;99219.72;4665298;30;20043;-93
2022/12/16 03:04:10;;;;;;;19.05;8.02;;;;;;;-1.08;72.78;99241.75;4679890;30;20073;-92
2022/12/16 03:07:05;;;;;;;18.95;8.35;;;;;;;-1.18;72.43;99220.91;4679685;30;20113;-93
2022/12/16 03:10:04;;;;;;;18.67;9.10;;;;;;;-1.11;72.42;99216.22;4679968;30;20042;-92
2022/12/16 03:12:47;;;;;;;22.48;9.85;;;;;;;-0.65;72.44;99267.25;4697051;30;20048;-94
2022/12/16 03:15:49;;;;;;;22.83;9.93;;;;;;;-1.10;71.98;99199.06;4730658;30;20083;-94
2022/12/16 03:18:40;;;;;;;20.05;10.18;;;;;;;-0.78;72.26;99231.59;4702125;30;20107;-93
2022/12/16 03:21:23;;;;;;;23.25;10.48;;;;;;;-0.59;72.03;99261.75;4797884;29;20049;-94
2022/12/16 03:27:22;;;;;;;20.20;10.45;;;;;;;-0.47;72.14;99265.16;4841251;29;20049;-91
2022/12/16 03:30:37;;;;;;;23.75;10.82;;;;;;;-0.14;71.28;99316.47;4826503;29;20050;-94
2022/12/16 03:33:59;;;;;;;20.20;10.15;;;;;;;-0.68;71.55;99224.78;4853078;29;20054;-95
2022/12/16 03:36:55;;;;;;;21.50;10.07;;;;;;;-0.01;71.33;99343.84;4861590;29;20105;-92
2022/12/16 03:39:49;;;;;;;18.17;9.38;;;;;;;-0.30;72.01;99315.41;4847321;29;20059;-93
2022/12/16 03:42:31;;;;;;;;;;;;;;;-0.14;72.36;99338.78;4823391;29;20112;-93
2022/12/16 03:45:01;;;;;;;20.90;9.32;;;;;;;-0.62;72.22;99277.53;4865101;29;19935;-92
2022/12/16 03:48:03;;;;;;;21.67;10.27;;;;;;;-0.44;71.81;99284.53;4864442;29;20057;-92
2022/12/16 03:50:33;;;;;;;20.65;9.45;;;;;;;-0.74;71.99;99243.47;4845666;29;20049;-93
2022/12/16 03:53:01;;;;;;;20.30;7.35;;;;;;;-0.63;72.18;99295.50;4844383;29;20058;-91
2022/12/16 03:55:29;;;;;;;17.90;8.10;;;;;;;-0.75;72.38;99268.69;4830015;29;20054;-94
2022/12/16 03:57:58;;;;;;;23.58;10.85;;;;;;;-0.36;72.51;99319.88;4791713;29;20037;-94
2022/12/16 04:00:28;;;;;;;20.63;10.45;;;;;;;-0.71;72.39;99253.72;4826324;29;20050;-93
2022/12/16 04:03:21;;;;;;;21.25;10.40;;;;;;;-0.44;72.29;99306.84;4797989;29;20065;-94
2022/12/16 04:24:18;;;;;;;20.67;8.57;;;;;;;-0.66;72.45;99306.72;4727797;30;20060;-92
2022/12/16 04:27:28;;;;;;;17.13;8.65;;;;;;;-0.45;72.43;99342.00;4717029;30;20045;-92
2022/12/16 04:30:19;;;;;;;21.55;10.65;;;;;;;0.05;72.37;99425.38;4714372;30;20081;-93
